Time;durP1;ratioP1;P1;durP2;ratioP2;P2;SDS_P1;SDS_P2;PMS_P1;PMS_P2;Temp;Humidity;BMP_temperature;BMP_pressure;BME280_temperature;BME280_humidity;BME280_pressure;Samples;Min_cycle;Max_cycle;Signal;HPM_P1;HPM_P2
2022/03/08 00:00:19;;;;;;;;;;;;;;;;;;1019816;29;2915;-70
2022/03/08 00:01:08;;;;;;;;;;;;;;;;;;1020943;28;3873;-71
2022/03/08 00:01:39;;;;;;;;;;;;;;;;;;1017951;29;2796;-71
2022/03/08 00:02:09;;;;;;;;;;;;;;;;;;1019262;29;3961;-70
2022/03/08 00:02:39;;;;;;;;;;;;;;;;;;1018222;29;2584;-71
2022/03/08 00:03:10;;;;;;;;;;;;;;;;;;1018497;29;3808;-71
2022/03/08 00:03:40;;;;;;;;;;;;;;;;;;1020498;29;2511;-70
2022/03/08 00:04:10;;;;;;;;;;;;;;;;;;1021570;29;3970;-71
2022/03/08 00:04:40;;;;;;;;;;;;;;;;;;1022133;28;3841;-71
2022/03/08 00:05:11;;;;;;;;;;;;;;;;;;1022884;28;2124;-70
2022/03/08 00:05:47;;;;;;;;;;;;;;;;;;1021941;28;4030;-71
2022/03/08 00:06:26;;;;;;;;;;;;;;;;;;1022442;28;2304;-70
2022/03/08 00:07:03;;;;;;;;;;;;;;;;;;1022815;28;4154;-70
2022/03/08 00:07:33;;;;;;;;;;;;;;;;;;1022273;28;2401;-68
2022/03/08 00:08:03;;;;;;;;;;;;;;;;;;1023160;28;3995;-70
2022/03/08 00:08:42;;;;;;;;;;;;;;;;;;1020939;28;4064;-71
2022/03/08 00:09:12;;;;;;;;;;;;;;;;;;1022469;29;2426;-71
2022/03/08 00:09:43;;;;;;;;;;;;;;;;;;1021842;28;4101;-70
2022/03/08 00:10:14;;;;;;;;;;;;;;;;;;1023983;28;1628;-71
2022/03/08 00:10:44;;;;;;;;;;;;;;;;;;1020545;28;3851;-71
2022/03/08 00:11:16;;;;;;;;;;;;;;;;;;1023306;28;2803;-71
2022/03/08 00:11:46;;;;;;;;;;;;;;;;;;1021410;28;3867;-70
2022/03/08 00:12:16;;;;;;;;;;;;;;;;;;1023712;28;1774;-71
2022/03/08 00:12:47;;;;;;;;;;;;;;;;;;1022427;28;4075;-70
2022/03/08 00:13:17;;;;;;;;;;;;;;;;;;1022295;28;2121;-70
2022/03/08 00:13:50;;;;;;;;;;;;;;;;;;1022533;28;3979;-70
2022/03/08 00:14:20;;;;;;;;;;;;;;;;;;1023308;28;2762;-71
2022/03/08 00:14:51;;;;;;;;;;;;;;;;;;1022714;28;3988;-70
2022/03/08 00:15:24;;;;;;;;;;;;;;;;;;1021872;28;2186;-71
2022/03/08 00:16:01;;;;;;;;;;;;;;;;;;1022416;29;3789;-70
2022/03/08 00:16:31;;;;;;;;;;;;;;;;;;1021804;28;2437;-70
2022/03/08 00:17:02;;;;;;;;;;;;;;;;;;1022851;28;4542;-71
2022/03/08 00:17:32;;;;;;;;;;;;;;;;;;1022010;29;1996;-71
2022/03/08 00:18:03;;;;;;;;;;;;;;;;;;1022611;28;4393;-70
2022/03/08 00:18:33;;;;;;;;;;;;;;;;;;1022805;28;2698;-71
2022/03/08 00:19:03;;;;;;;;;;;;;;;;;;1021957;28;4131;-71
2022/03/08 00:19:33;;;;;;;;;;;;;;;;;;1022883;28;2474;-71
2022/03/08 00:20:06;;;;;;;;;;;;;;;;;;1021652;28;4442;-70
2022/03/08 00:20:37;;;;;;;;;;;;;;;;;;1022623;28;2794;-70
2022/03/08 00:21:07;;;;;;;;;;;;;;;;;;1022593;28;4042;-70
2022/03/08 00:21:40;;;;;;;;;;;;;;;;;;1022354;29;2455;-70
2022/03/08 00:22:10;;;;;;;;;;;;;;;;;;1022886;28;3789;-70
2022/03/08 00:22:41;;;;;;;;;;;;;;;;;;1018700;29;3912;-72
2022/03/08 00:23:11;;;;;;;;;;;;;;;;;;1018352;29;2746;-71
2022/03/08 00:23:41;;;;;;;;;;;;;;;;;;1018238;29;3856;-71
2022/03/08 00:24:12;;;;;;;;;;;;;;;;;;1018895;29;2599;-71
2022/03/08 00:24:43;;;;;;;;;;;;;;;;;;1017234;29;4005;-71
2022/03/08 00:25:13;;;;;;;;;;;;;;;;;;1019154;29;2447;-70
2022/03/08 00:25:43;;;;;;;;;;;;;;;;;;1016789;29;3876;-71
2022/03/08 00:26:15;;;;;;;;;;;;;;;;;;1018913;29;2843;-70
2022/03/08 00:26:48;;;;;;;;;;;;;;;;;;1022266;28;3853;-71
2022/03/08 00:27:18;;;;;;;;;;;;;;;;;;1022698;28;1862;-71
2022/03/08 00:27:49;;;;;;;;;;;;;;;;;;1021631;28;4488;-70
2022/03/08 00:28:19;;;;;;;;;;;;;;;;;;1023638;28;1171;-71
2022/03/08 00:28:49;;;;;;;;;;;;;;;;;;1021909;28;3884;-71
2022/03/08 00:29:20;;;;;;;;;;;;;;;;;;1023154;28;2054;-71
2022/03/08 00:29:50;;;;;;;;;;;;;;;;;;1018293;29;3945;-70
2022/03/08 00:30:22;;;;;;;;;;;;;;;;;;1017505;29;2633;-71
2022/03/08 00:30:52;;;;;;;;;;;;;;;;;;1018103;29;5563;-71
2022/03/08 00:31:23;;;;;;;;;;;;;;;;;;1018986;29;2099;-71
2022/03/08 00:31:53;;;;;;;;;;;;;;;;;;1022551;28;3898;-71
2022/03/08 00:32:23;;;;;;;;;;;;;;;;;;1022954;28;3728;-71
2022/03/08 00:32:53;;;;;;;;;;;;;;;;;;1022463;28;3842;-71
2022/03/08 00:33:24;;;;;;;;;;;;;;;;;;1022578;28;2806;-70
2022/03/08 00:33:54;;;;;;;;;;;;;;;;;;1021439;28;4107;-71
2022/03/08 00:34:25;;;;;;;;;;;;;;;;;;1023392;28;2883;-71
2022/03/08 00:34:55;;;;;;;;;;;;;;;;;;1021936;29;4072;-70
2022/03/08 00:35:26;;;;;;;;;;;;;;;;;;1024264;28;1589;-70
2022/03/08 00:35:56;;;;;;;;;;;;;;;;;;1020681;28;4169;-71
2022/03/08 00:36:27;;;;;;;;;;;;;;;;;;1023361;28;2202;-70
2022/03/08 00:36:57;;;;;;;;;;;;;;;;;;1022940;28;3969;-71
2022/03/08 00:37:28;;;;;;;;;;;;;;;;;;1022688;28;1897;-70
2022/03/08 00:37:59;;;;;;;;;;;;;;;;;;1022086;29;4492;-69
2022/03/08 00:38:29;;;;;;;;;;;;;;;;;;1021633;29;3022;-71
2022/03/08 00:38:59;;;;;;;;;;;;;;;;;;1022744;28;3969;-71
2022/03/08 00:39:30;;;;;;;;;;;;;;;;;;1022529;28;2164;-70
2022/03/08 00:40:00;;;;;;;;;;;;;;;;;;1022262;28;3917;-71
2022/03/08 00:40:30;;;;;;;;;;;;;;;;;;1023108;28;1712;-71
2022/03/08 00:41:01;;;;;;;;;;;;;;;;;;1021311;28;4089;-70
2022/03/08 00:41:31;;;;;;;;;;;;;;;;;;1021907;28;2931;-70
2022/03/08 00:42:01;;;;;;;;;;;;;;;;;;1021733;28;4032;-71
2022/03/08 00:42:32;;;;;;;;;;;;;;;;;;1023310;28;1936;-70
2022/03/08 00:43:02;;;;;;;;;;;;;;;;;;1022913;28;4002;-70
2022/03/08 00:43:32;;;;;;;;;;;;;;;;;;1022904;28;2744;-71
2022/03/08 00:44:03;;;;;;;;;;;;;;;;;;1021741;28;3904;-69
2022/03/08 00:44:34;;;;;;;;;;;;;;;;;;1022879;28;2606;-72
2022/03/08 00:45:07;;;;;;;;;;;;;;;;;;1023358;28;4529;-69
2022/03/08 00:45:37;;;;;;;;;;;;;;;;;;1022336;28;2281;-70
2022/03/08 00:46:07;;;;;;;;;;;;;;;;;;1022253;29;4040;-71
2022/03/08 00:46:39;;;;;;;;;;;;;;;;;;1021633;28;2245;-70
2022/03/08 00:47:10;;;;;;;;;;;;;;;;;;1022125;28;4798;-71
2022/03/08 00:47:40;;;;;;;;;;;;;;;;;;1022283;28;2039;-71
2022/03/08 00:48:11;;;;;;;;;;;;;;;;;;1022710;28;3851;-71
2022/03/08 00:48:41;;;;;;;;;;;;;;;;;;1021295;28;4028;-70
2022/03/08 00:49:12;;;;;;;;;;;;;;;;;;1023172;28;1284;-70
2022/03/08 00:49:42;;;;;;;;;;;;;;;;;;1022736;28;4148;-71
2022/03/08 00:50:14;;;;;;;;;;;;;;;;;;1022654;28;2386;-70
2022/03/08 00:50:44;;;;;;;;;;;;;;;;;;1022282;28;3952;-70
2022/03/08 00:51:15;;;;;;;;;;;;;;;;;;1022748;28;2506;-70
2022/03/08 00:51:45;;;;;;;;;;;;;;;;;;1022705;28;4027;-71
2022/03/08 00:52:15;;;;;;;;;;;;;;;;;;1023359;28;2656;-70
2022/03/08 00:52:46;;;;;;;;;;;;;;;;;;1022595;28;3930;-71
2022/03/08 00:53:16;;;;;;;;;;;;;;;;;;1022942;28;2938;-71
2022/03/08 00:53:48;;;;;;;;;;;;;;;;;;1022076;28;4090;-70
2022/03/08 00:54:18;;;;;;;;;;;;;;;;;;1022800;28;2499;-71
2022/03/08 00:54:48;;;;;;;;;;;;;;;;;;1021638;28;4133;-71
2022/03/08 00:55:19;;;;;;;;;;;;;;;;;;1023174;29;2062;-69
2022/03/08 00:55:49;;;;;;;;;;;;;;;;;;1020337;28;3865;-71
2022/03/08 00:56:20;;;;;;;;;;;;;;;;;;1023834;28;3229;-70
2022/03/08 00:56:50;;;;;;;;;;;;;;;;;;1021630;28;3988;-72
2022/03/08 00:57:20;;;;;;;;;;;;;;;;;;1019399;29;1441;-71
2022/03/08 00:57:51;;;;;;;;;;;;;;;;;;1018127;29;3973;-70
2022/03/08 00:58:22;;;;;;;;;;;;;;;;;;1018721;29;1661;-70
2022/03/08 00:58:52;;;;;;;;;;;;;;;;;;1018186;29;3953;-71
2022/03/08 00:59:23;;;;;;;;;;;;;;;;;;1023463;28;1820;-70
2022/03/08 00:59:53;;;;;;;;;;;;;;;;;;1021531;29;4021;-71
2022/03/08 01:00:25;;;;;;;;;;;;;;;;;;1023246;28;2407;-70
2022/03/08 01:00:55;;;;;;;;;;;;;;;;;;1022299;28;3942;-71
2022/03/08 01:01:26;;;;;;;;;;;;;;;;;;1021588;29;2526;-70
2022/03/08 01:01:56;;;;;;;;;;;;;;;;;;1019961;29;3948;-71
2022/03/08 01:02:26;;;;;;;;;;;;;;;;;;1021932;29;2039;-71
2022/03/08 01:02:57;;;;;;;;;;;;;;;;;;1018981;29;3985;-71
2022/03/08 01:03:27;;;;;;;;;;;;;;;;;;1022970;28;3033;-71
2022/03/08 01:03:57;;;;;;;;;;;;;;;;;;1021456;28;4117;-70
2022/03/08 01:04:28;;;;;;;;;;;;;;;;;;1022890;28;2509;-70
2022/03/08 01:04:58;;;;;;;;;;;;;;;;;;1021601;28;4065;-70
2022/03/08 01:05:30;;;;;;;;;;;;;;;;;;1023716;28;2727;-70
2022/03/08 01:06:09;;;;;;;;;;;;;;;;;;1016248;29;4092;-71
2022/03/08 01:06:47;;;;;;;;;;;;;;;;;;1019121;29;1579;-70
2022/03/08 01:07:17;;;;;;;;;;;;;;;;;;1018333;29;4475;-71
2022/03/08 01:07:47;;;;;;;;;;;;;;;;;;1021883;28;3912;-71
2022/03/08 01:08:18;;;;;;;;;;;;;;;;;;1021381;28;2652;-70
2022/03/08 01:08:48;;;;;;;;;;;;;;;;;;1022033;28;3925;-70
2022/03/08 01:09:18;;;;;;;;;;;;;;;;;;1022348;28;2556;-70
2022/03/08 01:09:48;;;;;;;;;;;;;;;;;;1022409;28;4086;-70
2022/03/08 01:10:19;;;;;;;;;;;;;;;;;;1023820;28;3309;-70
2022/03/08 01:10:50;;;;;;;;;;;;;;;;;;1021683;28;3920;-70
2022/03/08 01:11:20;;;;;;;;;;;;;;;;;;1022618;28;2530;-70
2022/03/08 01:11:50;;;;;;;;;;;;;;;;;;1021580;28;3933;-70
2022/03/08 01:12:21;;;;;;;;;;;;;;;;;;1023785;28;1556;-70
2022/03/08 01:12:51;;;;;;;;;;;;;;;;;;1021914;28;3877;-70
2022/03/08 01:13:29;;;;;;;;;;;;;;;;;;1022976;28;2766;-70
2022/03/08 01:13:59;;;;;;;;;;;;;;;;;;1021739;28;3916;-70
2022/03/08 01:14:30;;;;;;;;;;;;;;;;;;1023257;28;3225;-70
2022/03/08 01:15:01;;;;;;;;;;;;;;;;;;1021708;28;4254;-70
2022/03/08 01:15:32;;;;;;;;;;;;;;;;;;1023763;28;1936;-70
2022/03/08 01:16:02;;;;;;;;;;;;;;;;;;1022862;28;3895;-70
2022/03/08 01:16:34;;;;;;;;;;;;;;;;;;1022092;28;1974;-71
2022/03/08 01:17:04;;;;;;;;;;;;;;;;;;1023153;28;4080;-70
2022/03/08 01:17:34;;;;;;;;;;;;;;;;;;1022039;28;1753;-70
2022/03/08 01:18:05;;;;;;;;;;;;;;;;;;1018970;29;3955;-70
2022/03/08 01:18:35;;;;;;;;;;;;;;;;;;1017191;29;2929;-70
2022/03/08 01:19:05;;;;;;;;;;;;;;;;;;1018849;29;4261;-69
2022/03/08 01:19:36;;;;;;;;;;;;;;;;;;1019071;29;1851;-70
2022/03/08 01:20:07;;;;;;;;;;;;;;;;;;1022001;29;4063;-70
2022/03/08 01:20:38;;;;;;;;;;;;;;;;;;1023083;28;2543;-69
2022/03/08 01:21:08;;;;;;;;;;;;;;;;;;1022049;28;4074;-70
2022/03/08 01:21:39;;;;;;;;;;;;;;;;;;1022512;29;2133;-70
2022/03/08 01:22:10;;;;;;;;;;;;;;;;;;1022359;28;3952;-70
2022/03/08 01:22:41;;;;;;;;;;;;;;;;;;1022486;28;4107;-71
2022/03/08 01:23:11;;;;;;;;;;;;;;;;;;1023336;28;1756;-71
2022/03/08 01:23:41;;;;;;;;;;;;;;;;;;1020358;29;3999;-71
2022/03/08 01:24:12;;;;;;;;;;;;;;;;;;1023708;28;2712;-70
2022/03/08 01:24:42;;;;;;;;;;;;;;;;;;1020546;28;4087;-71
2022/03/08 01:25:13;;;;;;;;;;;;;;;;;;1023237;28;2060;-70
2022/03/08 01:25:44;;;;;;;;;;;;;;;;;;1020733;28;3966;-71
2022/03/08 01:26:14;;;;;;;;;;;;;;;;;;1023256;28;2711;-70
2022/03/08 01:26:44;;;;;;;;;;;;;;;;;;1021181;28;3922;-70
2022/03/08 01:27:15;;;;;;;;;;;;;;;;;;1023593;28;1460;-70
2022/03/08 01:27:45;;;;;;;;;;;;;;;;;;1021347;28;4092;-69
2022/03/08 01:28:15;;;;;;;;;;;;;;;;;;1023488;28;2755;-69
2022/03/08 01:28:45;;;;;;;;;;;;;;;;;;1022433;28;4280;-71
2022/03/08 01:29:16;;;;;;;;;;;;;;;;;;1018746;29;1704;-70
2022/03/08 01:29:46;;;;;;;;;;;;;;;;;;1018086;29;4157;-70
2022/03/08 01:30:18;;;;;;;;;;;;;;;;;;1018546;29;2393;-70
2022/03/08 01:30:48;;;;;;;;;;;;;;;;;;1018204;29;3899;-70
2022/03/08 01:31:19;;;;;;;;;;;;;;;;;;1022454;28;2528;-70
2022/03/08 01:31:49;;;;;;;;;;;;;;;;;;1022176;28;3959;-70
2022/03/08 01:32:19;;;;;;;;;;;;;;;;;;1023779;28;2729;-70
2022/03/08 01:32:50;;;;;;;;;;;;;;;;;;1021573;28;3932;-71
2022/03/08 01:33:20;;;;;;;;;;;;;;;;;;1023171;28;2830;-70
2022/03/08 01:33:51;;;;;;;;;;;;;;;;;;1019940;28;4070;-70
2022/03/08 01:34:21;;;;;;;;;;;;;;;;;;1023708;28;2565;-70
2022/03/08 01:34:51;;;;;;;;;;;;;;;;;;1021510;28;4093;-71
2022/03/08 01:35:22;;;;;;;;;;;;;;;;;;1024030;28;1349;-70
2022/03/08 01:35:52;;;;;;;;;;;;;;;;;;1021876;28;4004;-70
2022/03/08 01:36:23;;;;;;;;;;;;;;;;;;1022946;28;1664;-69
2022/03/08 01:36:55;;;;;;;;;;;;;;;;;;1022372;28;4082;-71
2022/03/08 01:37:32;;;;;;;;;;;;;;;;;;1022375;28;1826;-70
2022/03/08 01:38:02;;;;;;;;;;;;;;;;;;1022537;28;3802;-70
2022/03/08 01:38:32;;;;;;;;;;;;;;;;;;1021464;28;3026;-69
2022/03/08 01:39:03;;;;;;;;;;;;;;;;;;1022588;28;3912;-70
2022/03/08 01:39:34;;;;;;;;;;;;;;;;;;1017237;29;3055;-71
2022/03/08 01:40:05;;;;;;;;;;;;;;;;;;1018638;29;3900;-70
2022/03/08 01:40:35;;;;;;;;;;;;;;;;;;1019607;29;3495;-70
2022/03/08 01:41:05;;;;;;;;;;;;;;;;;;1020617;29;4060;-71
2022/03/08 01:41:36;;;;;;;;;;;;;;;;;;1021101;29;2497;-69
2022/03/08 01:42:07;;;;;;;;;;;;;;;;;;1022707;28;4069;-70
2022/03/08 01:42:37;;;;;;;;;;;;;;;;;;1023324;29;1769;-70
2022/03/08 01:43:07;;;;;;;;;;;;;;;;;;1021397;28;3921;-70
2022/03/08 01:43:38;;;;;;;;;;;;;;;;;;1022105;28;2807;-70
2022/03/08 01:44:09;;;;;;;;;;;;;;;;;;1022053;28;3857;-70
2022/03/08 01:44:43;;;;;;;;;;;;;;;;;;1022778;28;2046;-71
2022/03/08 01:45:17;;;;;;;;;;;;;;;;;;1022017;29;3853;-70
2022/03/08 01:45:50;;;;;;;;;;;;;;;;;;1022364;28;4050;-71
2022/03/08 01:46:21;;;;;;;;;;;;;;;;;;1022238;28;2171;-70
2022/03/08 01:46:51;;;;;;;;;;;;;;;;;;1017542;29;4115;-70
2022/03/08 01:47:22;;;;;;;;;;;;;;;;;;1019085;29;1810;-69
2022/03/08 01:47:53;;;;;;;;;;;;;;;;;;1017552;29;3891;-70
2022/03/08 01:48:23;;;;;;;;;;;;;;;;;;1017336;29;2263;-70
2022/03/08 01:48:53;;;;;;;;;;;;;;;;;;1021948;28;3844;-70
2022/03/08 01:49:23;;;;;;;;;;;;;;;;;;1022759;28;2230;-70
2022/03/08 01:49:54;;;;;;;;;;;;;;;;;;1020241;28;4050;-70
2022/03/08 01:50:24;;;;;;;;;;;;;;;;;;1023207;28;2791;-71
2022/03/08 01:50:55;;;;;;;;;;;;;;;;;;1021017;28;4061;-70
2022/03/08 01:51:26;;;;;;;;;;;;;;;;;;1022938;28;2291;-70
2022/03/08 01:51:56;;;;;;;;;;;;;;;;;;1020329;28;4189;-69
2022/03/08 01:52:27;;;;;;;;;;;;;;;;;;1023453;28;1643;-71
2022/03/08 01:52:57;;;;;;;;;;;;;;;;;;1021864;28;3837;-71
2022/03/08 01:53:27;;;;;;;;;;;;;;;;;;1017523;29;2946;-69
2022/03/08 01:53:58;;;;;;;;;;;;;;;;;;1017799;28;4049;-70
2022/03/08 01:54:28;;;;;;;;;;;;;;;;;;1017635;29;2785;-70
2022/03/08 01:54:58;;;;;;;;;;;;;;;;;;1016939;29;4201;-71
2022/03/08 01:55:28;;;;;;;;;;;;;;;;;;1021586;28;2445;-70
2022/03/08 01:55:59;;;;;;;;;;;;;;;;;;1021311;28;3905;-71
2022/03/08 01:56:29;;;;;;;;;;;;;;;;;;1022092;28;2861;-71
2022/03/08 01:57:00;;;;;;;;;;;;;;;;;;1022521;28;3942;-70
2022/03/08 01:57:30;;;;;;;;;;;;;;;;;;1022688;29;2748;-70
2022/03/08 01:58:00;;;;;;;;;;;;;;;;;;1020794;28;3917;-70
2022/03/08 01:58:31;;;;;;;;;;;;;;;;;;1021874;28;2409;-71
2022/03/08 01:59:02;;;;;;;;;;;;;;;;;;1021232;28;4076;-70
2022/03/08 01:59:32;;;;;;;;;;;;;;;;;;1022001;28;2321;-71
2022/03/08 02:00:07;;;;;;;;;;;;;;;;;;1020838;28;3984;-71
2022/03/08 02:00:38;;;;;;;;;;;;;;;;;;1018676;29;2503;-71
2022/03/08 02:01:08;;;;;;;;;;;;;;;;;;1017214;29;3845;-70
2022/03/08 02:01:38;;;;;;;;;;;;;;;;;;1018710;29;1930;-70
2022/03/08 02:02:09;;;;;;;;;;;;;;;;;;1017791;29;3795;-70
2022/03/08 02:02:41;;;;;;;;;;;;;;;;;;1020738;29;2829;-71
2022/03/08 02:03:11;;;;;;;;;;;;;;;;;;1022066;28;3882;-70
2022/03/08 02:03:41;;;;;;;;;;;;;;;;;;1021436;29;4025;-70
2022/03/08 02:04:12;;;;;;;;;;;;;;;;;;1022899;28;2293;-70
2022/03/08 02:04:42;;;;;;;;;;;;;;;;;;1021677;28;3947;-70
2022/03/08 02:05:12;;;;;;;;;;;;;;;;;;1022263;29;2927;-70
2022/03/08 02:05:42;;;;;;;;;;;;;;;;;;1020933;28;3973;-70
2022/03/08 02:06:19;;;;;;;;;;;;;;;;;;1021325;28;2238;-70
2022/03/08 02:06:57;;;;;;;;;;;;;;;;;;1021358;28;3933;-71
2022/03/08 02:07:34;;;;;;;;;;;;;;;;;;1022233;29;2290;-70
2022/03/08 02:08:04;;;;;;;;;;;;;;;;;;1021511;29;4161;-70
2022/03/08 02:08:34;;;;;;;;;;;;;;;;;;1021738;29;3496;-70
2022/03/08 02:09:05;;;;;;;;;;;;;;;;;;1021773;28;4125;-70
2022/03/08 02:09:35;;;;;;;;;;;;;;;;;;1022177;28;2931;-70
2022/03/08 02:10:07;;;;;;;;;;;;;;;;;;1020381;28;4543;-70
2022/03/08 02:10:37;;;;;;;;;;;;;;;;;;1022222;29;2821;-70
2022/03/08 02:11:07;;;;;;;;;;;;;;;;;;1022119;29;3869;-70
2022/03/08 02:11:39;;;;;;;;;;;;;;;;;;1021946;28;1805;-70
2022/03/08 02:12:10;;;;;;;;;;;;;;;;;;1022537;28;4034;-70
2022/03/08 02:12:40;;;;;;;;;;;;;;;;;;1021332;29;2521;-71
2022/03/08 02:13:10;;;;;;;;;;;;;;;;;;1022370;28;3821;-69
2022/03/08 02:13:40;;;;;;;;;;;;;;;;;;1021058;28;2616;-69
2022/03/08 02:14:10;;;;;;;;;;;;;;;;;;1022764;28;3780;-71
2022/03/08 02:14:42;;;;;;;;;;;;;;;;;;1022152;29;3942;-70
2022/03/08 02:15:13;;;;;;;;;;;;;;;;;;1021689;29;2439;-70
2022/03/08 02:15:47;;;;;;;;;;;;;;;;;;1022905;29;3858;-70
2022/03/08 02:16:17;;;;;;;;;;;;;;;;;;1018495;29;2135;-70
2022/03/08 02:16:47;;;;;;;;;;;;;;;;;;1020713;29;3939;-70
2022/03/08 02:17:18;;;;;;;;;;;;;;;;;;1018640;29;2898;-70
2022/03/08 02:17:48;;;;;;;;;;;;;;;;;;1018549;29;4102;-71
2022/03/08 02:18:19;;;;;;;;;;;;;;;;;;1021091;28;2898;-70
2022/03/08 02:18:49;;;;;;;;;;;;;;;;;;1021887;29;4054;-71
2022/03/08 02:19:19;;;;;;;;;;;;;;;;;;1023287;29;1844;-72
2022/03/08 02:19:50;;;;;;;;;;;;;;;;;;1020500;29;4119;-70
2022/03/08 02:20:20;;;;;;;;;;;;;;;;;;1022030;29;2478;-71
2022/03/08 02:20:50;;;;;;;;;;;;;;;;;;1020966;29;3849;-70
2022/03/08 02:21:21;;;;;;;;;;;;;;;;;;1015325;29;1979;-68
2022/03/08 02:21:51;;;;;;;;;;;;;;;;;;1013949;29;4511;-70
2022/03/08 02:22:21;;;;;;;;;;;;;;;;;;1014476;29;2577;-70
2022/03/08 02:22:51;;;;;;;;;;;;;;;;;;1014159;29;4137;-71
2022/03/08 02:23:22;;;;;;;;;;;;;;;;;;1022745;29;1732;-70
2022/03/08 02:23:52;;;;;;;;;;;;;;;;;;1020511;28;4112;-70
2022/03/08 02:24:22;;;;;;;;;;;;;;;;;;1022228;28;3236;-70
2022/03/08 02:24:53;;;;;;;;;;;;;;;;;;1021673;29;4037;-69
2022/03/08 02:25:23;;;;;;;;;;;;;;;;;;1021421;29;2575;-70
2022/03/08 02:25:54;;;;;;;;;;;;;;;;;;1021614;29;4006;-71
2022/03/08 02:26:24;;;;;;;;;;;;;;;;;;1022318;29;2811;-70
2022/03/08 02:26:54;;;;;;;;;;;;;;;;;;1021140;29;3971;-70
2022/03/08 02:27:25;;;;;;;;;;;;;;;;;;1022113;29;2072;-69
2022/03/08 02:27:55;;;;;;;;;;;;;;;;;;1021630;29;4099;-70
2022/03/08 02:28:26;;;;;;;;;;;;;;;;;;1023191;29;1252;-70
2022/03/08 02:28:56;;;;;;;;;;;;;;;;;;1021049;29;3925;-70
2022/03/08 02:29:27;;;;;;;;;;;;;;;;;;1019044;29;3195;-70
2022/03/08 02:29:57;;;;;;;;;;;;;;;;;;1016632;29;4292;-71
2022/03/08 02:30:28;;;;;;;;;;;;;;;;;;1017394;29;2929;-71
2022/03/08 02:30:58;;;;;;;;;;;;;;;;;;1016858;29;4051;-70
2022/03/08 02:31:29;;;;;;;;;;;;;;;;;;1022961;29;1583;-70
2022/03/08 02:31:59;;;;;;;;;;;;;;;;;;1021325;29;4001;-70
2022/03/08 02:32:29;;;;;;;;;;;;;;;;;;1022309;29;2713;-70
2022/03/08 02:33:00;;;;;;;;;;;;;;;;;;1021316;28;3915;-69
2022/03/08 02:33:30;;;;;;;;;;;;;;;;;;1021692;29;2782;-70
2022/03/08 02:34:01;;;;;;;;;;;;;;;;;;1022552;29;4069;-70
2022/03/08 02:34:31;;;;;;;;;;;;;;;;;;1022497;28;2272;-70
2022/03/08 02:35:09;;;;;;;;;;;;;;;;;;1022021;29;3920;-70
2022/03/08 02:35:39;;;;;;;;;;;;;;;;;;1021788;29;2130;-70
2022/03/08 02:36:09;;;;;;;;;;;;;;;;;;1022793;29;4052;-70
2022/03/08 02:36:41;;;;;;;;;;;;;;;;;;1021102;29;2672;-70
2022/03/08 02:37:12;;;;;;;;;;;;;;;;;;1022578;29;3835;-70
2022/03/08 02:37:53;;;;;;;;;;;;;;;;;;1021777;29;3850;-70
2022/03/08 02:38:23;;;;;;;;;;;;;;;;;;1022391;29;2605;-71
2022/03/08 02:38:54;;;;;;;;;;;;;;;;;;1020789;28;4014;-70
2022/03/08 02:39:24;;;;;;;;;;;;;;;;;;1022434;28;2649;-70
2022/03/08 02:39:54;;;;;;;;;;;;;;;;;;1021291;28;4928;-70
2022/03/08 02:40:26;;;;;;;;;;;;;;;;;;1018250;29;3276;-70
2022/03/08 02:40:56;;;;;;;;;;;;;;;;;;1016435;29;3931;-69
2022/03/08 02:41:26;;;;;;;;;;;;;;;;;;1019274;29;2557;-71
2022/03/08 02:41:57;;;;;;;;;;;;;;;;;;1018370;29;4434;-70
2022/03/08 02:42:27;;;;;;;;;;;;;;;;;;1022920;29;2718;-70
2022/03/08 02:42:57;;;;;;;;;;;;;;;;;;1024209;28;4062;-71
2022/03/08 02:43:28;;;;;;;;;;;;;;;;;;1023384;28;2535;-71
2022/03/08 02:43:58;;;;;;;;;;;;;;;;;;1021418;28;3971;-70
2022/03/08 02:44:29;;;;;;;;;;;;;;;;;;1022379;28;2645;-70
2022/03/08 02:44:59;;;;;;;;;;;;;;;;;;1020869;29;3946;-71
2022/03/08 02:45:30;;;;;;;;;;;;;;;;;;1022882;29;2326;-70
2022/03/08 02:46:00;;;;;;;;;;;;;;;;;;1020992;29;3979;-70
2022/03/08 02:46:31;;;;;;;;;;;;;;;;;;1022872;28;1679;-70
2022/03/08 02:47:03;;;;;;;;;;;;;;;;;;1021278;28;3998;-71
2022/03/08 02:47:33;;;;;;;;;;;;;;;;;;1022569;28;1836;-71
2022/03/08 02:48:04;;;;;;;;;;;;;;;;;;1021384;29;3895;-70
2022/03/08 02:48:34;;;;;;;;;;;;;;;;;;1021169;29;2351;-70
2022/03/08 02:49:04;;;;;;;;;;;;;;;;;;1021749;28;3912;-71
2022/03/08 02:49:34;;;;;;;;;;;;;;;;;;1021684;29;1782;-71
2022/03/08 02:50:06;;;;;;;;;;;;;;;;;;1022025;28;3891;-70
2022/03/08 02:50:37;;;;;;;;;;;;;;;;;;1021426;28;1992;-70
2022/03/08 02:51:07;;;;;;;;;;;;;;;;;;1021572;29;3974;-70
2022/03/08 02:51:37;;;;;;;;;;;;;;;;;;1017477;29;2462;-70
2022/03/08 02:52:07;;;;;;;;;;;;;;;;;;1017322;29;3998;-70
2022/03/08 02:52:39;;;;;;;;;;;;;;;;;;1019216;29;1903;-69
2022/03/08 02:53:09;;;;;;;;;;;;;;;;;;1017662;29;4282;-70
2022/03/08 02:53:40;;;;;;;;;;;;;;;;;;1023065;29;1881;-70
2022/03/08 02:54:10;;;;;;;;;;;;;;;;;;1018013;29;4212;-70
2022/03/08 02:54:40;;;;;;;;;;;;;;;;;;1018328;29;2166;-70
2022/03/08 02:55:11;;;;;;;;;;;;;;;;;;1017772;29;3928;-70
2022/03/08 02:55:42;;;;;;;;;;;;;;;;;;1018025;29;4012;-70
2022/03/08 02:56:12;;;;;;;;;;;;;;;;;;1021417;28;2934;-70
2022/03/08 02:56:42;;;;;;;;;;;;;;;;;;1021445;28;4103;-70
2022/03/08 02:57:12;;;;;;;;;;;;;;;;;;1023277;29;1058;-71
2022/03/08 02:57:46;;;;;;;;;;;;;;;;;;1021138;28;3913;-70
2022/03/08 02:58:16;;;;;;;;;;;;;;;;;;1022918;29;2562;-70
2022/03/08 02:58:46;;;;;;;;;;;;;;;;;;1021432;29;4565;-69
2022/03/08 02:59:20;;;;;;;;;;;;;;;;;;1023600;29;1097;-70
2022/03/08 02:59:50;;;;;;;;;;;;;;;;;;1020412;29;4432;-71
2022/03/08 03:00:22;;;;;;;;;;;;;;;;;;1021349;29;2601;-70
2022/03/08 03:00:53;;;;;;;;;;;;;;;;;;1021455;28;3813;-71
2022/03/08 03:01:23;;;;;;;;;;;;;;;;;;1022696;29;2312;-71
2022/03/08 03:01:53;;;;;;;;;;;;;;;;;;1021552;28;3975;-69
2022/03/08 03:02:23;;;;;;;;;;;;;;;;;;1021982;29;3460;-69
2022/03/08 03:02:54;;;;;;;;;;;;;;;;;;1021782;28;4070;-70
2022/03/08 03:03:27;;;;;;;;;;;;;;;;;;1022388;29;1675;-70
2022/03/08 03:03:57;;;;;;;;;;;;;;;;;;1022213;29;3947;-70
2022/03/08 03:04:27;;;;;;;;;;;;;;;;;;1022614;29;1735;-71
2022/03/08 03:04:58;;;;;;;;;;;;;;;;;;1021463;28;4124;-70
2022/03/08 03:05:28;;;;;;;;;;;;;;;;;;1022708;29;1381;-70
2022/03/08 03:06:04;;;;;;;;;;;;;;;;;;1021468;29;4193;-70
2022/03/08 03:06:43;;;;;;;;;;;;;;;;;;1022153;28;2798;-70
2022/03/08 03:07:21;;;;;;;;;;;;;;;;;;1022726;28;3915;-71
2022/03/08 03:07:52;;;;;;;;;;;;;;;;;;1017265;29;3843;-71
2022/03/08 03:08:22;;;;;;;;;;;;;;;;;;1017251;29;2822;-70
2022/03/08 03:08:52;;;;;;;;;;;;;;;;;;1013459;29;3982;-70
2022/03/08 03:09:23;;;;;;;;;;;;;;;;;;1014410;29;2745;-70
2022/03/08 03:09:53;;;;;;;;;;;;;;;;;;1017575;29;4042;-71
2022/03/08 03:10:24;;;;;;;;;;;;;;;;;;1017845;29;2670;-70
2022/03/08 03:10:54;;;;;;;;;;;;;;;;;;1022121;28;3963;-71
2022/03/08 03:11:24;;;;;;;;;;;;;;;;;;1020643;28;2791;-71
2022/03/08 03:11:54;;;;;;;;;;;;;;;;;;1022214;28;3981;-71
2022/03/08 03:12:25;;;;;;;;;;;;;;;;;;1022418;28;2518;-70
2022/03/08 03:12:56;;;;;;;;;;;;;;;;;;1021430;29;4080;-71
2022/03/08 03:13:26;;;;;;;;;;;;;;;;;;1022943;28;2637;-71
2022/03/08 03:13:56;;;;;;;;;;;;;;;;;;1021903;28;4028;-69
2022/03/08 03:14:26;;;;;;;;;;;;;;;;;;1022891;28;1798;-70
2022/03/08 03:14:57;;;;;;;;;;;;;;;;;;1020463;29;4184;-70
2022/03/08 03:15:28;;;;;;;;;;;;;;;;;;1022907;28;1798;-70
2022/03/08 03:15:58;;;;;;;;;;;;;;;;;;1017292;29;4310;-71
2022/03/08 03:16:28;;;;;;;;;;;;;;;;;;1018966;29;2265;-72
2022/03/08 03:16:59;;;;;;;;;;;;;;;;;;1017059;29;3862;-71
2022/03/08 03:17:29;;;;;;;;;;;;;;;;;;1018966;29;1259;-70
2022/03/08 03:18:00;;;;;;;;;;;;;;;;;;1021928;28;4252;-69
2022/03/08 03:18:30;;;;;;;;;;;;;;;;;;1022662;28;2093;-70
2022/03/08 03:19:00;;;;;;;;;;;;;;;;;;1022077;28;3826;-70
2022/03/08 03:19:30;;;;;;;;;;;;;;;;;;1021982;28;1763;-69
2022/03/08 03:20:01;;;;;;;;;;;;;;;;;;1017382;29;4095;-71
2022/03/08 03:20:32;;;;;;;;;;;;;;;;;;1017300;29;3072;-71
2022/03/08 03:21:02;;;;;;;;;;;;;;;;;;1017531;29;4083;-70
2022/03/08 03:21:32;;;;;;;;;;;;;;;;;;1017063;29;2348;-70
2022/03/08 03:22:03;;;;;;;;;;;;;;;;;;1018210;29;4181;-69
2022/03/08 03:22:33;;;;;;;;;;;;;;;;;;1018509;29;1729;-70
2022/03/08 03:23:04;;;;;;;;;;;;;;;;;;1017000;29;3967;-70
2022/03/08 03:23:34;;;;;;;;;;;;;;;;;;1018406;29;2038;-71
2022/03/08 03:24:04;;;;;;;;;;;;;;;;;;1021700;28;4370;-69
2022/03/08 03:24:35;;;;;;;;;;;;;;;;;;1022321;28;2122;-71
2022/03/08 03:25:06;;;;;;;;;;;;;;;;;;1021459;28;3918;-71
2022/03/08 03:25:36;;;;;;;;;;;;;;;;;;1022492;28;2017;-71
2022/03/08 03:26:06;;;;;;;;;;;;;;;;;;1022307;28;3989;-70
2022/03/08 03:26:37;;;;;;;;;;;;;;;;;;1021134;28;2549;-71
2022/03/08 03:27:07;;;;;;;;;;;;;;;;;;1021961;28;4041;-70
2022/03/08 03:27:38;;;;;;;;;;;;;;;;;;1021082;28;2860;-71
2022/03/08 03:28:09;;;;;;;;;;;;;;;;;;1018140;29;3966;-71
2022/03/08 03:28:39;;;;;;;;;;;;;;;;;;1016807;29;2492;-69
2022/03/08 03:29:10;;;;;;;;;;;;;;;;;;1018544;29;3752;-70
2022/03/08 03:29:40;;;;;;;;;;;;;;;;;;1017739;29;1628;-70
2022/03/08 03:30:12;;;;;;;;;;;;;;;;;;1022645;28;3828;-71
2022/03/08 03:30:42;;;;;;;;;;;;;;;;;;1021198;28;3857;-69
2022/03/08 03:31:12;;;;;;;;;;;;;;;;;;1023164;28;2294;-70
2022/03/08 03:31:42;;;;;;;;;;;;;;;;;;1021465;28;3882;-69
2022/03/08 03:32:13;;;;;;;;;;;;;;;;;;1013882;29;3008;-70
2022/03/08 03:32:43;;;;;;;;;;;;;;;;;;1009381;29;3991;-71
2022/03/08 03:33:14;;;;;;;;;;;;;;;;;;1009869;29;1923;-70
2022/03/08 03:33:44;;;;;;;;;;;;;;;;;;1009737;29;4043;-71
2022/03/08 03:34:14;;;;;;;;;;;;;;;;;;1018405;29;2639;-70
2022/03/08 03:34:45;;;;;;;;;;;;;;;;;;1022349;29;3969;-69